BAW57 FAOR-EGLL
Flight info
| Callsign | BAW57 |
|---|---|
| Flight time | N/A |
| Altitude | 24000 |
| Route | VASUR3A VASUR Z21 ITROL/N0502F340 UQ25 RUDAS/N0503F360 UT941 IBRIT UM998 VUE UB733 KSA DCT BZ UA604 KIKSA/N0494F380 UA604 FRV UR986 TAKUM DCT MIMBA UA604 TMS UA615 TIFOU/N0489F400 UA615 GHA/N0479F390 UB726 KAHIL UZ333 ZEM/N0479F400 UB16 PECES DCT MAMOM DCT ELTAN DCT MHN DCT MEROS DCT LAPIT DCT CHELY DCT LUMAS DCT SOFFY DCT MRM DCT MTL DCT ETREK DCT MADOT DCT MOPEM DCT CACHI DCT AVLON DCT OKRIX DCT BRY/N0457F360 DCT CLM DCT KOPOR DCT ABNUR DCT DIMAL DCT ALESO ALESO1H |
| Aircraft | A388/J-SADE2E3FGHIJ3J4J5M1RWXY/LB1D1 |
Departure
| Time | 2026-04-30 19:42 |
|---|---|
| Airport | O.R. Tambo International Airport (FAOR) |
Arrival
| Time | N/A |
|---|---|
| Airport | London Heathrow Airport (EGLL) |
| Time | Latitude | Longitude | Altitude | Speed | Heading |
|---|---|---|---|---|---|
| 2026-04-30 19:17 | -26.12916 | 28.23572 | 5559 ft | 0 kts | 186° |
| 2026-04-30 19:26 | -26.12890 | 28.23575 | 5557 ft | 3 kts | 186° |
| 2026-04-30 19:26 | -26.12853 | 28.23580 | 5555 ft | 3 kts | 186° |
| 2026-04-30 19:26 | -26.12835 | 28.23575 | 5555 ft | 3 kts | 151° |
| 2026-04-30 19:27 | -26.12818 | 28.23539 | 5555 ft | 3 kts | 98° |
| 2026-04-30 19:27 | -26.12818 | 28.23535 | 5556 ft | 0 kts | 95° |
| 2026-04-30 19:30 | -26.12819 | 28.23551 | 5555 ft | 4 kts | 95° |
| 2026-04-30 19:30 | -26.12826 | 28.23671 | 5556 ft | 11 kts | 95° |
| 2026-04-30 19:31 | -26.12897 | 28.23773 | 5554 ft | 11 kts | 194° |
| 2026-04-30 19:31 | -26.12975 | 28.23749 | 5557 ft | 12 kts | 195° |
| 2026-04-30 19:31 | -26.13110 | 28.23737 | 5552 ft | 0 kts | 141° |
| 2026-04-30 19:33 | -26.13112 | 28.23738 | 5552 ft | 2 kts | 142° |
| 2026-04-30 19:33 | -26.13121 | 28.23743 | 5553 ft | 1 kts | 180° |
| 2026-04-30 19:33 | -26.13125 | 28.23742 | 5551 ft | 0 kts | 198° |
| 2026-04-30 19:33 | -26.13128 | 28.23740 | 5551 ft | 2 kts | 205° |
| 2026-04-30 19:34 | -26.13145 | 28.23730 | 5554 ft | 4 kts | 214° |
| 2026-04-30 19:34 | -26.13170 | 28.23711 | 5552 ft | 5 kts | 215° |
| 2026-04-30 19:34 | -26.13243 | 28.23669 | 5556 ft | 7 kts | 198° |
| 2026-04-30 19:35 | -26.13279 | 28.23656 | 5556 ft | 9 kts | 195° |
| 2026-04-30 19:35 | -26.13370 | 28.23628 | 5558 ft | 11 kts | 195° |
| 2026-04-30 19:35 | -26.13423 | 28.23611 | 5559 ft | 12 kts | 195° |
| 2026-04-30 19:35 | -26.13510 | 28.23584 | 5558 ft | 13 kts | 195° |
| 2026-04-30 19:36 | -26.13601 | 28.23556 | 5557 ft | 14 kts | 195° |
| 2026-04-30 19:36 | -26.13677 | 28.23533 | 5560 ft | 4 kts | 195° |
| 2026-04-30 19:36 | -26.13746 | 28.23511 | 5560 ft | 4 kts | 195° |
| 2026-04-30 19:37 | -26.13780 | 28.23501 | 5558 ft | 6 kts | 195° |
| 2026-04-30 19:37 | -26.13832 | 28.23485 | 5561 ft | 9 kts | 195° |
| 2026-04-30 19:37 | -26.13894 | 28.23466 | 5561 ft | 9 kts | 195° |
| 2026-04-30 19:37 | -26.13951 | 28.23449 | 5564 ft | 8 kts | 195° |
| 2026-04-30 19:38 | -26.14005 | 28.23432 | 5566 ft | 8 kts | 195° |
| 2026-04-30 19:38 | -26.14064 | 28.23414 | 5568 ft | 9 kts | 195° |
| 2026-04-30 19:38 | -26.14132 | 28.23393 | 5568 ft | 11 kts | 195° |
| 2026-04-30 19:38 | -26.14215 | 28.23368 | 5569 ft | 14 kts | 195° |
| 2026-04-30 19:39 | -26.14311 | 28.23338 | 5568 ft | 14 kts | 196° |
| 2026-04-30 19:39 | -26.14407 | 28.23306 | 5569 ft | 14 kts | 196° |
| 2026-04-30 19:39 | -26.14504 | 28.23279 | 5570 ft | 14 kts | 187° |
| 2026-04-30 19:39 | -26.14590 | 28.23322 | 5569 ft | 15 kts | 124° |
| 2026-04-30 19:40 | -26.14615 | 28.23427 | 5567 ft | 10 kts | 62° |
| 2026-04-30 19:40 | -26.14593 | 28.23449 | 5567 ft | 0 kts | 21° |
| 2026-04-30 19:40 | -26.14499 | 28.23485 | 5568 ft | 41 kts | 17° |
| 2026-04-30 19:41 | -26.13980 | 28.23642 | 5567 ft | 114 kts | 15° |
| 2026-04-30 19:41 | -26.12998 | 28.23944 | 5550 ft | 169 kts | 15° |
| 2026-04-30 19:41 | -26.11760 | 28.24317 | 5643 ft | 194 kts | 14° |
| 2026-04-30 19:41 | -26.10467 | 28.24733 | 6092 ft | 198 kts | 16° |
| 2026-04-30 19:42 | -26.09129 | 28.25202 | 6602 ft | 201 kts | 18° |
| 2026-04-30 19:42 | -26.07812 | 28.25703 | 7093 ft | 204 kts | 19° |
| 2026-04-30 19:42 | -26.06465 | 28.26236 | 7570 ft | 208 kts | 14° |
| 2026-04-30 19:42 | -26.04996 | 28.26137 | 7733 ft | 223 kts | 333° |
| 2026-04-30 19:43 | -26.03868 | 28.24953 | 7935 ft | 225 kts | 300° |
| 2026-04-30 19:43 | -26.03202 | 28.23387 | 8117 ft | 229 kts | 292° |
| 2026-04-30 19:43 | -26.02610 | 28.21709 | 8534 ft | 236 kts | 290° |
| 2026-04-30 19:44 | -26.01292 | 28.18305 | 9573 ft | 251 kts | 305° |
| 2026-04-30 19:44 | -25.99995 | 28.16898 | 9776 ft | 271 kts | 322° |
| 2026-04-30 19:44 | -25.98394 | 28.15641 | 9995 ft | 291 kts | 327° |
| 2026-04-30 19:44 | -25.96656 | 28.14455 | 10542 ft | 295 kts | 329° |
| 2026-04-30 19:45 | -25.94864 | 28.13315 | 11162 ft | 298 kts | 330° |
| 2026-04-30 19:45 | -25.93047 | 28.12187 | 11758 ft | 300 kts | 330° |
| 2026-04-30 19:45 | -25.91216 | 28.11057 | 12351 ft | 303 kts | 330° |
| 2026-04-30 19:45 | -25.89363 | 28.09911 | 12917 ft | 306 kts | 330° |
| 2026-04-30 19:46 | -25.87497 | 28.08753 | 13476 ft | 308 kts | 330° |
| 2026-04-30 19:46 | -25.85618 | 28.07585 | 14026 ft | 311 kts | 330° |
| 2026-04-30 19:46 | -25.83722 | 28.06405 | 14548 ft | 314 kts | 330° |
| 2026-04-30 19:46 | -25.81817 | 28.05220 | 15071 ft | 316 kts | 330° |
| 2026-04-30 19:47 | -25.79895 | 28.04024 | 15540 ft | 319 kts | 330° |
| 2026-04-30 19:47 | -25.78611 | 28.03224 | 15867 ft | 320 kts | 330° |
| 2026-04-30 19:47 | -25.75997 | 28.01597 | 16526 ft | 323 kts | 330° |
| 2026-04-30 19:47 | -25.74034 | 28.00375 | 16964 ft | 326 kts | 330° |
| 2026-04-30 19:48 | -25.72052 | 27.99141 | 17468 ft | 327 kts | 330° |
| 2026-04-30 19:48 | -25.70062 | 27.97903 | 17898 ft | 330 kts | 330° |
| 2026-04-30 19:48 | -25.68051 | 27.96651 | 18300 ft | 333 kts | 330° |
| 2026-04-30 19:48 | -25.66024 | 27.95389 | 18780 ft | 334 kts | 330° |
| 2026-04-30 19:49 | -25.63988 | 27.94122 | 19205 ft | 336 kts | 330° |
| 2026-04-30 19:49 | -25.59909 | 27.91582 | 20013 ft | 341 kts | 330° |
| 2026-04-30 19:49 | -25.57808 | 27.90274 | 20425 ft | 343 kts | 330° |
| 2026-04-30 19:50 | -25.55801 | 27.88916 | 20794 ft | 345 kts | 323° |
| 2026-04-30 19:50 | -25.53913 | 27.87269 | 21184 ft | 347 kts | 321° |
| 2026-04-30 19:50 | -25.52026 | 27.85600 | 21561 ft | 349 kts | 321° |
| 2026-04-30 19:50 | -25.50114 | 27.83926 | 21929 ft | 351 kts | 321° |
| 2026-04-30 19:51 | -25.48189 | 27.82247 | 22296 ft | 353 kts | 321° |
| 2026-04-30 19:51 | -25.46252 | 27.80559 | 22677 ft | 355 kts | 321° |
| 2026-04-30 19:51 | -25.44309 | 27.78866 | 23006 ft | 357 kts | 321° |
| 2026-04-30 19:51 | -25.42326 | 27.77138 | 23370 ft | 359 kts | 321° |
| 2026-04-30 19:52 | -25.40384 | 27.75446 | 23733 ft | 361 kts | 321° |
| 2026-04-30 19:52 | -25.38405 | 27.73722 | 24091 ft | 363 kts | 321° |
| 2026-04-30 19:52 | -25.36415 | 27.71989 | 24432 ft | 365 kts | 321° |
| 2026-04-30 19:52 | -25.34415 | 27.70250 | 24801 ft | 367 kts | 321° |
| 2026-04-30 19:53 | -25.32377 | 27.68476 | 25155 ft | 369 kts | 321° |
| 2026-04-30 19:53 | -25.30380 | 27.66740 | 25513 ft | 371 kts | 321° |
| 2026-04-30 19:53 | -25.28346 | 27.64972 | 25876 ft | 373 kts | 321° |
| 2026-04-30 19:53 | -25.26298 | 27.63194 | 26229 ft | 375 kts | 321° |
| 2026-04-30 19:54 | -25.24235 | 27.61402 | 26604 ft | 378 kts | 321° |
| 2026-04-30 19:54 | -25.22169 | 27.59609 | 26966 ft | 380 kts | 321° |
| 2026-04-30 19:54 | -25.20083 | 27.57799 | 27328 ft | 382 kts | 321° |
| 2026-04-30 19:54 | -25.17993 | 27.55987 | 27688 ft | 384 kts | 321° |
| 2026-04-30 19:55 | -25.15885 | 27.54159 | 28025 ft | 386 kts | 321° |
| 2026-04-30 19:55 | -25.13769 | 27.52326 | 28380 ft | 388 kts | 321° |
| 2026-04-30 19:55 | -25.11635 | 27.50478 | 28719 ft | 391 kts | 321° |
| 2026-04-30 19:55 | -25.09490 | 27.48621 | 29035 ft | 394 kts | 321° |
| 2026-04-30 19:56 | -25.07333 | 27.46755 | 29383 ft | 396 kts | 321° |
| 2026-04-30 19:56 | -25.05161 | 27.44877 | 29752 ft | 397 kts | 321° |
| 2026-04-30 19:56 | -25.02992 | 27.42961 | 30068 ft | 400 kts | 318° |
| 2026-04-30 19:56 | -25.00920 | 27.40908 | 30392 ft | 403 kts | 317° |
| 2026-04-30 19:57 | -24.98834 | 27.38841 | 30776 ft | 404 kts | 318° |
| 2026-04-30 19:57 | -24.96734 | 27.36768 | 31106 ft | 406 kts | 318° |
| 2026-04-30 19:57 | -24.94623 | 27.34688 | 31439 ft | 408 kts | 318° |
| 2026-04-30 19:57 | -24.92504 | 27.32603 | 31755 ft | 410 kts | 318° |
| 2026-04-30 19:58 | -24.90366 | 27.30501 | 32074 ft | 413 kts | 318° |
| 2026-04-30 19:58 | -24.88230 | 27.28401 | 32385 ft | 415 kts | 318° |
| 2026-04-30 19:58 | -24.86059 | 27.26269 | 32689 ft | 416 kts | 318° |
| 2026-04-30 19:58 | -24.83896 | 27.24144 | 32971 ft | 419 kts | 318° |
| 2026-04-30 19:59 | -24.81715 | 27.22003 | 33265 ft | 421 kts | 318° |
| 2026-04-30 19:59 | -24.79522 | 27.19851 | 33542 ft | 423 kts | 318° |
| 2026-04-30 19:59 | -24.75110 | 27.15526 | 34053 ft | 428 kts | 318° |
| 2026-04-30 20:00 | -24.72880 | 27.13342 | 34284 ft | 430 kts | 318° |
| 2026-04-30 20:00 | -24.70645 | 27.11152 | 34621 ft | 430 kts | 318° |
| 2026-04-30 20:00 | -24.68416 | 27.08972 | 34970 ft | 429 kts | 318° |
| 2026-04-30 20:00 | -24.66186 | 27.06791 | 35306 ft | 428 kts | 318° |
| 2026-04-30 20:01 | -24.61741 | 27.02445 | 35927 ft | 427 kts | 318° |
| 2026-04-30 20:01 | -24.59522 | 27.00278 | 36218 ft | 426 kts | 318° |
| 2026-04-30 20:01 | -24.57342 | 26.98150 | 36479 ft | 426 kts | 318° |
| 2026-04-30 20:02 | -24.52900 | 26.93816 | 36930 ft | 428 kts | 318° |
| 2026-04-30 20:02 | -24.50673 | 26.91645 | 37109 ft | 429 kts | 318° |
| 2026-04-30 20:03 | -24.46186 | 26.87275 | 37465 ft | 432 kts | 318° |
| 2026-04-30 20:03 | -24.43939 | 26.85087 | 37631 ft | 434 kts | 318° |
| 2026-04-30 20:03 | -24.41673 | 26.82883 | 37796 ft | 435 kts | 318° |
| 2026-04-30 20:03 | -24.39404 | 26.80676 | 37945 ft | 437 kts | 318° |
| 2026-04-30 20:04 | -24.37125 | 26.78462 | 38102 ft | 439 kts | 318° |
| 2026-04-30 20:04 | -24.34829 | 26.76231 | 38131 ft | 444 kts | 318° |
| 2026-04-30 20:05 | -24.27526 | 26.69838 | 38532 ft | 449 kts | 323° |
| 2026-04-30 20:05 | -24.25012 | 26.67808 | 38735 ft | 449 kts | 323° |
| 2026-04-30 20:05 | -24.19984 | 26.63736 | 39125 ft | 449 kts | 323° |
| 2026-04-30 20:06 | -24.17472 | 26.61703 | 39276 ft | 450 kts | 323° |
| 2026-04-30 20:06 | -24.14954 | 26.59667 | 39427 ft | 451 kts | 323° |
| 2026-04-30 20:06 | -24.12421 | 26.57622 | 39559 ft | 452 kts | 323° |
| 2026-04-30 20:06 | -24.09885 | 26.55574 | 39676 ft | 453 kts | 323° |
| 2026-04-30 20:07 | -24.07348 | 26.53528 | 39808 ft | 455 kts | 323° |
| 2026-04-30 20:07 | -24.04790 | 26.51466 | 39931 ft | 456 kts | 323° |
| 2026-04-30 20:08 | -23.99616 | 26.47296 | 40002 ft | 463 kts | 323° |
| 2026-04-30 20:08 | -23.94385 | 26.43086 | 40000 ft | 471 kts | 323° |
| 2026-04-30 20:09 | -23.89053 | 26.38799 | 40003 ft | 480 kts | 323° |
| 2026-04-30 20:09 | -23.80845 | 26.32218 | 40001 ft | 495 kts | 323° |
| 2026-04-30 20:10 | -23.75225 | 26.27735 | 40001 ft | 506 kts | 323° |
| 2026-04-30 20:10 | -23.72400 | 26.25487 | 40001 ft | 500 kts | 324° |
| 2026-04-30 20:11 | -23.63634 | 26.19338 | 40000 ft | 501 kts | 327° |
| 2026-04-30 20:11 | -23.57761 | 26.15257 | 40000 ft | 500 kts | 327° |
| 2026-04-30 20:12 | -23.49281 | 26.08634 | 40000 ft | 500 kts | 322° |
| 2026-04-30 20:13 | -23.43735 | 26.04062 | 39998 ft | 500 kts | 322° |
| 2026-04-30 20:13 | -23.38181 | 25.99497 | 39999 ft | 500 kts | 323° |
| 2026-04-30 20:14 | -23.32675 | 25.94976 | 39997 ft | 500 kts | 323° |
| 2026-04-30 20:14 | -23.27111 | 25.90412 | 39996 ft | 500 kts | 323° |
| 2026-04-30 20:15 | -23.21550 | 25.85855 | 39998 ft | 500 kts | 323° |
| 2026-04-30 20:15 | -23.15995 | 25.81309 | 39993 ft | 500 kts | 323° |
| 2026-04-30 20:16 | -23.10425 | 25.76754 | 39996 ft | 501 kts | 323° |
| 2026-04-30 20:16 | -23.04858 | 25.72207 | 39996 ft | 501 kts | 323° |
| 2026-04-30 20:17 | -22.99289 | 25.67662 | 40000 ft | 501 kts | 323° |
| 2026-04-30 20:17 | -22.93719 | 25.63123 | 39999 ft | 501 kts | 323° |
| 2026-04-30 20:18 | -22.89031 | 25.59424 | 40003 ft | 501 kts | 324° |
| 2026-04-30 20:18 | -22.82381 | 25.54298 | 40001 ft | 502 kts | 324° |
| 2026-04-30 20:19 | -22.76703 | 25.49900 | 40005 ft | 502 kts | 324° |
| 2026-04-30 20:19 | -22.71025 | 25.45494 | 40005 ft | 502 kts | 324° |
| 2026-04-30 20:20 | -22.65350 | 25.41096 | 40004 ft | 502 kts | 324° |
| 2026-04-30 20:20 | -22.59680 | 25.36705 | 40005 ft | 502 kts | 324° |
| 2026-04-30 20:21 | -22.54004 | 25.32314 | 40002 ft | 501 kts | 324° |
| 2026-04-30 20:21 | -22.49281 | 25.28665 | 40002 ft | 501 kts | 324° |
| 2026-04-30 20:22 | -22.43612 | 25.24288 | 40001 ft | 501 kts | 324° |
| 2026-04-30 20:22 | -22.37934 | 25.19909 | 40002 ft | 501 kts | 324° |
| 2026-04-30 20:23 | -22.32265 | 25.15541 | 40001 ft | 501 kts | 324° |
| 2026-04-30 20:23 | -22.26586 | 25.11171 | 39999 ft | 501 kts | 324° |
| 2026-04-30 20:24 | -22.20919 | 25.06813 | 39999 ft | 501 kts | 324° |
| 2026-04-30 20:24 | -22.15242 | 25.02453 | 39998 ft | 501 kts | 324° |
| 2026-04-30 20:25 | -22.06729 | 24.95922 | 40001 ft | 501 kts | 324° |
| 2026-04-30 20:26 | -21.98215 | 24.89401 | 40000 ft | 501 kts | 324° |
| 2026-04-30 20:26 | -21.89696 | 24.82883 | 40000 ft | 501 kts | 324° |
| 2026-04-30 20:27 | -21.78348 | 24.74180 | 40001 ft | 501 kts | 324° |
| 2026-04-30 20:28 | -21.66993 | 24.65490 | 40002 ft | 501 kts | 324° |
| 2026-04-30 20:30 | -21.52793 | 24.54649 | 40001 ft | 501 kts | 324° |
| 2026-04-30 20:31 | -21.35758 | 24.41677 | 40002 ft | 500 kts | 324° |
| 2026-04-30 20:32 | -21.21604 | 24.30929 | 39999 ft | 500 kts | 324° |
| 2026-04-30 20:33 | -21.13081 | 24.24468 | 39999 ft | 500 kts | 324° |
| 2026-04-30 20:34 | -21.04569 | 24.18026 | 39998 ft | 500 kts | 324° |
| 2026-04-30 20:35 | -20.96043 | 24.11582 | 39998 ft | 500 kts | 324° |
| 2026-04-30 20:35 | -20.87525 | 24.05153 | 39999 ft | 500 kts | 324° |
| 2026-04-30 20:36 | -20.81839 | 24.00867 | 40001 ft | 500 kts | 324° |